Time;durP1;ratioP1;P1;durP2;ratioP2;P2;SDS_P1;SDS_P2;PMS_P1;PMS_P2;Temp;Humidity;BMP_temperature;BMP_pressure;BME280_temperature;BME280_humidity;BME280_pressure;Samples;Min_cycle;Max_cycle;Signal;HPM_P1;HPM_P2
2021/05/15 00:00:22;;;;;;;3.87;1.27;;;;;;;-140.05;100.00;61859.38;5050292;28;20199;-67
2021/05/15 00:02:48;;;;;;;3.00;1.30;;;;;;;-140.05;100.00;61859.38;5050013;28;20192;-68
2021/05/15 00:05:14;;;;;;;1.90;1.20;;;;;;;-140.05;100.00;61859.38;5050277;28;20481;-66
2021/05/15 00:07:40;;;;;;;2.90;1.10;;;;;;;-140.05;100.00;61859.38;5048809;28;20223;-67
2021/05/15 00:10:06;;;;;;;5.37;0.90;;;;;;;-140.05;100.00;61859.38;5050310;28;20271;-69
2021/05/15 00:12:32;;;;;;;2.90;1.13;;;;;;;-140.05;100.00;61859.38;5049625;28;20185;-66
2021/05/15 00:14:59;;;;;;;2.47;1.00;;;;;;;-140.05;100.00;61859.38;5049619;28;20462;-65
2021/05/15 00:17:25;;;;;;;3.57;1.20;;;;;;;-140.05;100.00;61859.38;5050984;28;20224;-67
2021/05/15 00:19:51;;;;;;;2.73;1.20;;;;;;;-140.05;100.00;61859.38;5052594;28;20486;-66
2021/05/15 00:22:17;;;;;;;3.67;1.40;;;;;;;-140.05;100.00;61859.38;5049936;28;20224;-67
2021/05/15 00:24:43;;;;;;;2.33;1.20;;;;;;;-140.05;100.00;61859.38;5050324;28;20212;-67
2021/05/15 00:27:08;;;;;;;3.23;1.20;;;;;;;-140.05;100.00;61859.38;5049580;28;20848;-67
2021/05/15 00:29:34;;;;;;;4.43;1.40;;;;;;;-140.05;100.00;61859.38;5050137;28;20199;-67
2021/05/15 00:32:00;;;;;;;2.20;1.10;;;;;;;-140.05;100.00;61859.38;5049607;28;20216;-65
2021/05/15 00:34:25;;;;;;;4.20;1.33;;;;;;;-140.05;100.00;61859.38;5050466;28;20223;-68
2021/05/15 00:36:51;;;;;;;2.03;0.87;;;;;;;-140.05;100.00;61859.38;5049652;28;20232;-67
2021/05/15 00:39:19;;;;;;;4.03;1.00;;;;;;;-140.05;100.00;61859.38;5049365;28;20289;-66
2021/05/15 00:41:45;;;;;;;2.70;1.30;;;;;;;-140.05;100.00;61859.38;5049729;28;20446;-68
2021/05/15 00:44:30;;;;;;;2.20;1.00;;;;;;;-140.05;100.00;61859.38;5049107;28;20929;-67
2021/05/15 00:46:56;;;;;;;5.60;1.20;;;;;;;-140.05;100.00;61859.38;5049724;28;20446;-67
2021/05/15 00:49:23;;;;;;;2.83;1.13;;;;;;;-140.05;100.00;61859.38;5049500;28;20447;-68
2021/05/15 00:51:49;;;;;;;1.10;1.00;;;;;;;-140.05;100.00;61859.38;5065378;28;20705;-68
2021/05/15 00:54:14;;;;;;;0.90;0.87;;;;;;;-140.05;100.00;61859.38;5048026;28;20976;-67
2021/05/15 00:56:40;;;;;;;2.93;1.03;;;;;;;-140.05;100.00;61859.38;5050037;28;20271;-68
2021/05/15 00:59:06;;;;;;;3.17;1.40;;;;;;;-140.05;100.00;61859.38;5048869;28;20205;-67
2021/05/15 01:01:32;;;;;;;2.10;1.13;;;;;;;-140.05;100.00;61859.38;5049576;28;20267;-67
2021/05/15 01:03:58;;;;;;;3.60;1.07;;;;;;;-140.05;100.00;61859.38;5049221;28;20593;-66
2021/05/15 01:06:24;;;;;;;3.77;1.00;;;;;;;-140.05;100.00;61859.38;5049384;28;20473;-68
2021/05/15 01:08:50;;;;;;;2.43;1.20;;;;;;;-140.05;100.00;61859.38;5049666;28;20219;-67
2021/05/15 01:11:18;;;;;;;2.40;1.30;;;;;;;-140.05;100.00;61859.38;5049200;28;20459;-68
2021/05/15 01:13:58;;;;;;;2.90;1.30;;;;;;;-140.05;100.00;61859.38;5049339;28;20235;-67
2021/05/15 01:16:25;;;;;;;4.13;1.50;;;;;;;-140.05;100.00;61859.38;5049298;28;20438;-68
2021/05/15 01:18:51;;;;;;;5.30;1.60;;;;;;;-140.05;100.00;61859.38;5050303;28;20447;-65
2021/05/15 01:21:17;;;;;;;4.20;1.83;;;;;;;-140.05;100.00;61859.38;5053909;28;20603;-66
2021/05/15 01:23:43;;;;;;;4.13;1.80;;;;;;;-140.05;100.00;61859.38;5052745;28;20214;-67
2021/05/15 01:26:20;;;;;;;4.03;1.90;;;;;;;-140.05;100.00;61859.38;5053269;28;20450;-65
2021/05/15 01:28:49;;;;;;;3.70;1.70;;;;;;;-140.05;100.00;61859.38;5052709;28;20216;-67
2021/05/15 01:31:15;;;;;;;4.30;2.00;;;;;;;-140.05;100.00;61859.38;5053458;28;20435;-67
2021/05/15 01:33:41;;;;;;;3.00;1.83;;;;;;;-140.05;100.00;61859.38;5052546;28;20537;-65
2021/05/15 01:36:07;;;;;;;2.00;1.50;;;;;;;-140.05;100.00;61859.38;5053117;28;20442;-66
2021/05/15 01:38:33;;;;;;;2.50;1.70;;;;;;;-140.05;100.00;61859.38;5051662;28;20555;-67
2021/05/15 01:41:06;;;;;;;2.57;1.83;;;;;;;-140.05;100.00;61859.38;5053848;28;20450;-67
2021/05/15 01:43:32;;;;;;;4.53;2.00;;;;;;;-140.05;100.00;61859.38;5054964;28;21009;-66
2021/05/15 01:45:58;;;;;;;5.90;1.80;;;;;;;-140.05;100.00;61859.38;5053070;28;20986;-68
2021/05/15 01:48:24;;;;;;;2.47;1.73;;;;;;;-140.05;100.00;61859.38;5052375;28;20540;-67
2021/05/15 01:51:10;;;;;;;4.83;2.00;;;;;;;-140.05;100.00;61859.38;5052611;28;20253;-67
2021/05/15 01:53:43;;;;;;;5.23;1.73;;;;;;;-140.05;100.00;61859.38;5052673;28;20450;-66
2021/05/15 01:56:11;;;;;;;3.80;1.90;;;;;;;-140.05;100.00;61859.38;5053183;28;20439;-67
2021/05/15 01:58:38;;;;;;;4.43;1.40;;;;;;;-140.05;100.00;61859.38;5052688;28;20437;-67
2021/05/15 02:01:05;;;;;;;4.33;1.30;;;;;;;-140.05;100.00;61859.38;5052673;28;20470;-66
2021/05/15 02:03:31;;;;;;;3.63;1.60;;;;;;;-140.05;100.00;61859.38;5052435;28;20454;-67
2021/05/15 02:05:57;;;;;;;3.90;1.33;;;;;;;-140.05;100.00;61859.38;5052913;28;20439;-67
2021/05/15 02:08:23;;;;;;;4.23;1.60;;;;;;;-140.05;100.00;61859.38;5051544;28;20985;-66
2021/05/15 02:10:50;;;;;;;1.67;1.37;;;;;;;-140.05;100.00;61859.38;5052187;28;20597;-66
2021/05/15 02:13:18;;;;;;;2.50;1.50;;;;;;;-140.05;100.00;61859.38;5051892;28;20188;-66
2021/05/15 02:15:46;;;;;;;4.67;1.80;;;;;;;-140.05;100.00;61859.38;5053155;28;20431;-67
2021/05/15 02:18:13;;;;;;;3.50;1.30;;;;;;;-140.05;100.00;61859.38;5066862;28;20492;-66
2021/05/15 02:20:39;;;;;;;3.73;1.63;;;;;;;-140.05;100.00;61859.38;5052006;28;20427;-66
2021/05/15 02:23:06;;;;;;;2.17;1.40;;;;;;;-140.05;100.00;61859.38;5052028;28;20913;-65
2021/05/15 02:25:31;;;;;;;5.03;1.80;;;;;;;-140.05;100.00;61859.38;5052106;28;20470;-66
2021/05/15 02:27:57;;;;;;;2.43;1.37;;;;;;;-140.05;100.00;61859.38;5052168;28;20817;-65
2021/05/15 02:30:24;;;;;;;2.50;1.60;;;;;;;-140.05;100.00;61859.38;5050011;28;20189;-67
2021/05/15 02:32:51;;;;;;;6.03;2.00;;;;;;;-140.05;100.00;61859.38;5051875;28;20215;-66
2021/05/15 02:35:17;;;;;;;4.57;1.40;;;;;;;-140.05;100.00;61859.38;5051646;28;20804;-69
2021/05/15 02:37:44;;;;;;;4.33;1.70;;;;;;;-140.05;100.00;61859.38;5051651;28;20439;-67
2021/05/15 02:40:11;;;;;;;3.00;2.00;;;;;;;-140.05;100.00;61859.38;5051908;28;20435;-64
2021/05/15 02:42:37;;;;;;;3.93;2.10;;;;;;;-140.05;100.00;61859.38;5051486;28;20530;-65
2021/05/15 02:45:04;;;;;;;5.20;2.33;;;;;;;-140.05;100.00;61859.38;5051655;28;20668;-64
2021/05/15 02:47:30;;;;;;;7.60;2.70;;;;;;;-140.05;100.00;61859.38;5051091;28;20222;-66
2021/05/15 02:49:56;;;;;;;8.50;3.20;;;;;;;-140.05;100.00;61859.38;5051459;28;20439;-65
2021/05/15 02:52:24;;;;;;;5.00;2.90;;;;;;;-140.05;100.00;61859.38;5051062;28;20199;-65
2021/05/15 02:54:50;;;;;;;6.33;2.90;;;;;;;-140.05;100.00;61859.38;5051576;28;20836;-67
2021/05/15 02:57:16;;;;;;;6.50;2.70;;;;;;;-140.05;100.00;61859.38;5051484;28;20439;-67
2021/05/15 02:59:41;;;;;;;4.97;2.53;;;;;;;-140.05;100.00;61859.38;5052233;28;20250;-68
2021/05/15 03:02:07;;;;;;;4.93;2.80;;;;;;;-140.05;100.00;61859.38;5051506;28;20192;-66
2021/05/15 03:04:33;;;;;;;6.37;2.90;;;;;;;-140.05;100.00;61859.38;5055753;28;20310;-65
2021/05/15 03:07:00;;;;;;;6.10;3.13;;;;;;;-140.05;100.00;61859.38;5052321;28;20303;-66
2021/05/15 03:09:26;;;;;;;4.97;2.60;;;;;;;-140.05;100.00;61859.38;5051112;28;20238;-67
2021/05/15 03:11:52;;;;;;;3.93;2.63;;;;;;;-140.05;100.00;61859.38;5051786;28;20418;-67
2021/05/15 03:14:19;;;;;;;5.13;2.43;;;;;;;-140.05;100.00;61859.38;5051099;28;20203;-68
2021/05/15 03:16:44;;;;;;;5.43;2.40;;;;;;;-140.05;100.00;61859.38;5051158;28;20184;-65
2021/05/15 03:19:11;;;;;;;5.37;2.57;;;;;;;-140.05;100.00;61859.38;5050542;28;20443;-68
2021/05/15 03:21:37;;;;;;;5.57;2.63;;;;;;;-140.05;100.00;61859.38;5051309;28;20180;-67
2021/05/15 03:24:03;;;;;;;5.23;2.80;;;;;;;-140.05;100.00;61859.38;5049657;28;20485;-66
2021/05/15 03:26:29;;;;;;;4.80;2.63;;;;;;;-140.05;100.00;61859.38;5051079;28;20195;-69
2021/05/15 03:28:55;;;;;;;5.53;2.33;;;;;;;-140.05;100.00;61859.38;5050477;28;20450;-66
2021/05/15 03:31:20;;;;;;;6.73;2.90;;;;;;;-140.05;100.00;61859.38;5051267;28;20193;-65
2021/05/15 03:33:46;;;;;;;5.93;2.40;;;;;;;-140.05;100.00;61859.38;5050369;28;20650;-68
2021/05/15 03:36:12;;;;;;;6.00;2.23;;;;;;;-140.05;100.00;61859.38;5050831;28;20660;-66
2021/05/15 03:38:37;;;;;;;5.10;2.40;;;;;;;-140.05;100.00;61859.38;5050039;28;20188;-68
2021/05/15 03:41:03;;;;;;;5.43;2.60;;;;;;;-140.05;100.00;61859.38;5050949;28;20684;-68
2021/05/15 03:43:29;;;;;;;5.97;2.80;;;;;;;-140.05;100.00;61859.38;5050577;28;20189;-67
2021/05/15 03:45:56;;;;;;;6.70;2.67;;;;;;;-140.05;100.00;61859.38;5036996;28;20271;-67
2021/05/15 03:48:22;;;;;;;6.47;2.73;;;;;;;-140.05;100.00;61859.38;5050251;28;20279;-69
2021/05/15 03:50:48;;;;;;;9.57;3.50;;;;;;;-140.05;100.00;61859.38;5050330;28;20438;-68
2021/05/15 03:53:14;;;;;;;4.10;3.10;;;;;;;-140.05;100.00;61859.38;5050056;28;20443;-68
2021/05/15 03:55:41;;;;;;;7.00;3.10;;;;;;;-140.05;100.00;61859.38;5048825;28;20504;-67
2021/05/15 03:58:07;;;;;;;5.37;3.30;;;;;;;-140.05;100.00;61859.38;5050075;28;20606;-67
2021/05/15 04:00:33;;;;;;;9.57;3.10;;;;;;;-140.05;100.00;61859.38;5050191;28;20435;-66
2021/05/15 04:02:59;;;;;;;7.53;3.23;;;;;;;-140.05;100.00;61859.38;5050247;28;20196;-66
2021/05/15 04:05:24;;;;;;;5.83;3.00;;;;;;;-140.05;100.00;61859.38;5051258;28;20467;-66
2021/05/15 04:07:50;;;;;;;5.13;3.73;;;;;;;-140.05;100.00;61859.38;5050754;28;20792;-65
2021/05/15 04:10:16;;;;;;;37.50;4.67;;;;;;;-140.05;100.00;61859.38;5050280;28;20239;-66
2021/05/15 04:12:52;;;;;;;19.53;3.73;;;;;;;-140.05;100.00;61859.38;5050159;28;20200;-67
2021/05/15 04:15:35;;;;;;;8.13;3.50;;;;;;;-140.05;100.00;61859.38;5050909;28;20438;-65
2021/05/15 04:18:05;;;;;;;7.87;3.87;;;;;;;-140.05;100.00;61859.38;5051374;28;20963;-67
2021/05/15 04:20:33;;;;;;;7.47;3.60;;;;;;;-140.05;100.00;61859.38;5052546;28;20520;-66
2021/05/15 04:22:59;;;;;;;8.80;3.47;;;;;;;-140.05;100.00;61859.38;5052275;28;20906;-69
2021/05/15 04:25:24;;;;;;;8.00;3.70;;;;;;;-140.05;100.00;61859.38;5050747;28;20502;-66
2021/05/15 04:27:50;;;;;;;6.20;3.43;;;;;;;-140.05;100.00;61859.38;5049999;28;20214;-67
2021/05/15 04:30:16;;;;;;;7.77;3.43;;;;;;;-140.05;100.00;61859.38;5051572;28;20288;-66
2021/05/15 04:32:43;;;;;;;7.47;3.00;;;;;;;-140.05;100.00;61859.38;5049662;28;20544;-67
2021/05/15 04:35:09;;;;;;;7.47;3.00;;;;;;;-140.05;100.00;61859.38;5049943;28;20537;-68
2021/05/15 04:37:36;;;;;;;6.70;2.83;;;;;;;-140.05;100.00;61859.38;5050235;28;20487;-67
2021/05/15 04:40:05;;;;;;;7.47;3.23;;;;;;;-140.05;100.00;61859.38;5050209;28;20537;-66
2021/05/15 04:42:31;;;;;;;11.50;3.13;;;;;;;-140.05;100.00;61859.38;5036093;28;20500;-66
2021/05/15 04:44:57;;;;;;;9.37;3.67;;;;;;;-140.05;100.00;61859.38;5050316;28;20478;-66
2021/05/15 04:47:24;;;;;;;6.67;4.00;;;;;;;-140.05;100.00;61859.38;5049780;28;20189;-67
2021/05/15 04:49:49;;;;;;;7.17;3.70;;;;;;;-140.05;100.00;61859.38;5049573;28;20880;-67
2021/05/15 04:52:15;;;;;;;7.20;3.33;;;;;;;-140.05;100.00;61859.38;5049484;28;20465;-67
2021/05/15 04:54:41;;;;;;;5.30;2.50;;;;;;;-140.05;100.00;61859.38;5053297;28;20630;-66
2021/05/15 04:57:07;;;;;;;5.93;2.50;;;;;;;-140.05;100.00;61859.38;5051700;28;20302;-67
2021/05/15 04:59:33;;;;;;;3.07;1.60;;;;;;;-140.05;100.00;61859.38;5054149;28;20276;-67
2021/05/15 05:01:59;;;;;;;3.33;1.60;;;;;;;-140.05;100.00;61859.38;5053828;28;20518;-69
2021/05/15 05:04:26;;;;;;;4.33;2.47;;;;;;;-140.05;100.00;61859.38;5053305;28;20204;-66
2021/05/15 05:06:51;;;;;;;8.47;4.50;;;;;;;-140.05;100.00;61859.38;5053479;28;20232;-66
2021/05/15 05:09:17;;;;;;;8.03;4.47;;;;;;;-140.05;100.00;61859.38;5052434;28;20435;-68
2021/05/15 05:11:45;;;;;;;16.37;5.77;;;;;;;-140.05;100.00;61859.38;5051741;28;20227;-66
2021/05/15 05:14:11;;;;;;;11.13;4.50;;;;;;;-140.05;100.00;61859.38;5050500;28;20192;-67
2021/05/15 05:16:36;;;;;;;7.70;4.00;;;;;;;-140.05;100.00;61859.38;5050011;28;20448;-67
2021/05/15 05:19:03;;;;;;;10.70;4.87;;;;;;;-140.05;100.00;61859.38;5049592;28;20184;-68
2021/05/15 05:21:28;;;;;;;10.60;5.50;;;;;;;-140.05;100.00;61859.38;5044555;28;20637;-68
2021/05/15 05:23:54;;;;;;;8.03;4.93;;;;;;;-140.05;100.00;61859.38;5037897;28;20513;-68
2021/05/15 05:26:20;;;;;;;9.57;4.40;;;;;;;-140.05;100.00;61859.38;5046660;28;20189;-65
2021/05/15 05:28:51;;;;;;;8.13;4.40;;;;;;;-140.05;100.00;61859.38;5052899;28;20181;-66
2021/05/15 05:31:18;;;;;;;10.43;4.93;;;;;;;-140.05;100.00;61859.38;5052527;28;20196;-66
2021/05/15 05:33:46;;;;;;;12.20;5.93;;;;;;;-140.05;100.00;61859.38;5038369;28;20502;-65
2021/05/15 05:36:12;;;;;;;5.80;4.00;;;;;;;-140.05;100.00;61859.38;5046740;28;20438;-66
2021/05/15 05:38:38;;;;;;;4.90;3.13;;;;;;;-140.05;100.00;61859.38;5044077;28;20953;-65
2021/05/15 05:41:04;;;;;;;11.07;3.70;;;;;;;-140.05;100.00;61859.38;5047840;28;20485;-64
2021/05/15 05:43:29;;;;;;;8.20;3.80;;;;;;;-140.05;100.00;61859.38;5057530;28;20195;-65
2021/05/15 05:45:55;;;;;;;8.53;4.20;;;;;;;-140.05;100.00;61859.38;5058245;28;20296;-68
2021/05/15 05:48:21;;;;;;;8.67;4.33;;;;;;;-140.05;100.00;61859.38;5049224;28;20270;-66
2021/05/15 05:50:47;;;;;;;8.03;3.67;;;;;;;-140.05;100.00;61859.38;5055560;28;20188;-63
2021/05/15 05:53:14;;;;;;;6.70;3.83;;;;;;;-140.05;100.00;61859.38;5050387;28;20192;-67
2021/05/15 05:55:40;;;;;;;7.93;3.50;;;;;;;-140.05;100.00;61859.38;5053567;28;20576;-67
2021/05/15 05:58:06;;;;;;;9.07;3.57;;;;;;;-140.05;100.00;61859.38;5058036;28;20509;-65
2021/05/15 06:00:32;;;;;;;5.80;2.87;;;;;;;-140.05;100.00;61859.38;5057360;28;20439;-66
2021/05/15 06:02:58;;;;;;;4.53;2.80;;;;;;;-140.05;100.00;61859.38;5057137;28;20268;-68
2021/05/15 06:05:23;;;;;;;4.50;3.00;;;;;;;-140.05;100.00;61859.38;5056061;28;20531;-66
2021/05/15 06:07:49;;;;;;;5.23;2.47;;;;;;;-140.05;100.00;61859.38;5052267;28;20278;-64
2021/05/15 06:10:15;;;;;;;6.17;2.73;;;;;;;-140.05;100.00;61859.38;5052481;28;20200;-64
2021/05/15 06:12:41;;;;;;;7.17;2.20;;;;;;;-140.05;100.00;61859.38;5052167;28;20193;-65
2021/05/15 06:15:08;;;;;;;4.07;2.30;;;;;;;-140.05;100.00;61859.38;5064456;28;20199;-70
2021/05/15 06:17:34;;;;;;;5.60;2.67;;;;;;;-140.05;100.00;61859.38;5051589;28;20555;-68
2021/05/15 06:20:00;;;;;;;7.33;3.00;;;;;;;-140.05;100.00;61859.38;5066436;28;20558;-69
2021/05/15 06:22:26;;;;;;;8.53;2.80;;;;;;;-140.05;100.00;61859.38;5047781;28;20199;-68
2021/05/15 06:24:52;;;;;;;6.03;2.73;;;;;;;-140.05;100.00;61859.38;5044495;28;20483;-67
2021/05/15 06:27:18;;;;;;;11.63;2.80;;;;;;;-140.05;100.00;61859.38;5051133;28;20445;-67
2021/05/15 06:29:44;;;;;;;8.80;3.17;;;;;;;-140.05;100.00;61859.38;5050487;28;20447;-67
2021/05/15 06:32:10;;;;;;;4.77;2.30;;;;;;;-140.05;100.00;61859.38;5066986;28;20297;-66
2021/05/15 06:34:36;;;;;;;7.33;2.30;;;;;;;-140.05;100.00;61859.38;5067807;28;20735;-67
2021/05/15 06:37:02;;;;;;;5.77;2.40;;;;;;;-140.05;100.00;61859.38;5054711;28;20449;-65
2021/05/15 06:39:28;;;;;;;7.10;2.47;;;;;;;-140.05;100.00;61859.38;5044634;28;20472;-68
2021/05/15 06:41:54;;;;;;;6.23;2.50;;;;;;;-140.05;100.00;61859.38;5059013;28;20866;-68
2021/05/15 06:44:19;;;;;;;62.03;50.20;;;;;;;-140.05;100.00;61859.38;5063770;28;20216;-67
2021/05/15 06:46:45;;;;;;;17.70;12.87;;;;;;;-140.05;100.00;61859.38;5040002;28;20204;-65
2021/05/15 06:49:11;;;;;;;6.80;3.20;;;;;;;-140.05;100.00;61859.38;5066239;28;20215;-67
2021/05/15 06:51:37;;;;;;;87.97;69.70;;;;;;;-140.05;100.00;61859.38;5060590;28;20275;-69
2021/05/15 06:54:03;;;;;;;106.97;86.57;;;;;;;-140.05;100.00;61859.38;5040327;28;20219;-68
2021/05/15 06:56:29;;;;;;;11.50;4.00;;;;;;;-140.05;100.00;61859.38;5055160;28;20199;-66
2021/05/15 06:58:54;;;;;;;9.50;3.80;;;;;;;-140.05;100.00;61859.38;5034041;28;20444;-68
2021/05/15 07:01:20;;;;;;;11.77;3.30;;;;;;;-140.05;100.00;61859.38;5045641;28;20193;-67
2021/05/15 07:03:46;;;;;;;11.40;3.60;;;;;;;-140.05;100.00;61859.38;5044208;28;20260;-67
2021/05/15 07:06:12;;;;;;;10.70;4.20;;;;;;;-140.05;100.00;61859.38;5052414;28;20660;-65
2021/05/15 07:08:38;;;;;;;8.67;4.13;;;;;;;-140.05;100.00;61859.38;5049969;28;20189;-67
2021/05/15 07:11:03;;;;;;;7.70;3.80;;;;;;;-140.05;100.00;61859.38;5051150;28;20553;-66
2021/05/15 07:13:29;;;;;;;16.13;4.70;;;;;;;-140.05;100.00;61859.38;5050994;28;20187;-66
2021/05/15 07:15:55;;;;;;;10.57;4.60;;;;;;;-140.05;100.00;61859.38;5051635;28;20196;-66
2021/05/15 07:18:21;;;;;;;10.00;5.67;;;;;;;-140.05;100.00;61859.38;5052241;28;20185;-67
2021/05/15 07:20:47;;;;;;;15.03;7.03;;;;;;;-140.05;100.00;61859.38;5062926;28;20256;-69
2021/05/15 07:23:13;;;;;;;55.67;38.17;;;;;;;-140.05;100.00;61859.38;5054424;28;20681;-72
2021/05/15 07:25:39;;;;;;;10.90;4.53;;;;;;;-140.05;100.00;61859.38;5060882;28;20487;-71
2021/05/15 07:28:04;;;;;;;9.80;4.00;;;;;;;-140.05;100.00;61859.38;5049814;28;20647;-69
2021/05/15 07:30:30;;;;;;;6.67;3.83;;;;;;;-140.05;100.00;61859.38;5058625;28;20188;-69
2021/05/15 07:32:57;;;;;;;8.13;3.80;;;;;;;-140.05;100.00;61859.38;5053478;28;20201;-67
2021/05/15 07:35:27;;;;;;;9.20;5.97;;;;;;;-140.05;100.00;61859.38;5048227;28;20188;-68
2021/05/15 07:37:53;;;;;;;14.03;7.97;;;;;;;-140.05;100.00;61859.38;5046414;28;20843;-68
2021/05/15 07:40:19;;;;;;;9.83;7.27;;;;;;;-140.05;100.00;61859.38;5054873;28;20442;-68
2021/05/15 07:42:46;;;;;;;14.43;10.70;;;;;;;-140.05;100.00;61859.38;5065348;28;20197;-70
2021/05/15 07:45:12;;;;;;;14.97;9.40;;;;;;;-140.05;100.00;61859.38;5055699;28;20562;-70
2021/05/15 07:47:40;;;;;;;15.37;9.57;;;;;;;-140.05;100.00;61859.38;5049791;28;20443;-66
2021/05/15 07:50:06;;;;;;;18.93;8.97;;;;;;;-140.05;100.00;61859.38;5051071;28;20443;-67
2021/05/15 07:52:34;;;;;;;107.27;85.20;;;;;;;-140.05;100.00;61859.38;5050259;28;20435;-63
2021/05/15 07:54:59;;;;;;;12.10;8.47;;;;;;;-140.05;100.00;61859.38;5049395;28;20439;-67
2021/05/15 07:57:25;;;;;;;11.33;4.20;;;;;;;-140.05;100.00;61859.38;5051125;28;20442;-64
2021/05/15 07:59:52;;;;;;;6.77;3.47;;;;;;;-140.05;100.00;61859.38;5050757;28;20184;-64
2021/05/15 08:02:18;;;;;;;6.50;2.87;;;;;;;-140.05;100.00;61859.38;5050265;28;20427;-62
2021/05/15 08:04:43;;;;;;;13.07;2.43;;;;;;;-140.05;100.00;61859.38;5050595;28;20464;-63
2021/05/15 08:07:09;;;;;;;5.07;1.90;;;;;;;-140.05;100.00;61859.38;5050031;28;20232;-69
2021/05/15 08:09:35;;;;;;;17.17;2.43;;;;;;;-140.05;100.00;61859.38;5050370;28;20665;-68
2021/05/15 08:12:02;;;;;;;6.30;2.80;;;;;;;-140.05;100.00;61859.38;5050417;28;20192;-68
2021/05/15 08:14:28;;;;;;;7.40;2.13;;;;;;;-140.05;100.00;61859.38;5050332;28;20688;-69
2021/05/15 08:16:54;;;;;;;6.53;2.00;;;;;;;-140.05;100.00;61859.38;5050056;28;20784;-66
2021/05/15 08:19:20;;;;;;;9.50;3.20;;;;;;;-140.05;100.00;61859.38;5050974;28;20454;-66
2021/05/15 08:21:46;;;;;;;9.17;3.70;;;;;;;-140.05;100.00;61859.38;5050595;28;20185;-65
2021/05/15 08:24:12;;;;;;;5.00;3.03;;;;;;;-140.05;100.00;61859.38;5050043;28;20222;-64
2021/05/15 08:26:39;;;;;;;4.90;2.20;;;;;;;-140.05;100.00;61859.38;5049715;28;20215;-65
2021/05/15 08:29:08;;;;;;;7.37;2.17;;;;;;;-140.05;100.00;61859.38;5049321;28;21063;-65
2021/05/15 08:31:34;;;;;;;21.53;17.90;;;;;;;-140.05;100.00;61859.38;5049797;28;20188;-64
2021/05/15 08:33:59;;;;;;;7.33;2.60;;;;;;;-140.05;100.00;61859.38;5049837;28;20191;-65
2021/05/15 08:36:25;;;;;;;7.53;3.90;;;;;;;-140.05;100.00;61859.38;5048738;28;20250;-65
2021/05/15 08:38:53;;;;;;;7.60;2.70;;;;;;;-140.05;100.00;61859.38;5045380;28;20185;-65
2021/05/15 08:41:19;;;;;;;5.43;2.40;;;;;;;-140.05;100.00;61859.38;5039064;28;20188;-64
2021/05/15 08:43:48;;;;;;;10.67;3.53;;;;;;;-140.05;100.00;61859.38;5041901;28;20594;-66
2021/05/15 08:46:14;;;;;;;5.97;2.40;;;;;;;-140.05;100.00;61859.38;5044004;28;20558;-66
2021/05/15 08:48:42;;;;;;;6.97;2.83;;;;;;;-140.05;100.00;61859.38;5040787;28;20263;-66
2021/05/15 08:51:11;;;;;;;11.70;2.83;;;;;;;-140.05;100.00;61859.38;5038901;28;20189;-66
2021/05/15 08:53:39;;;;;;;6.83;2.60;;;;;;;-140.05;100.00;61859.38;5046166;28;20644;-68
2021/05/15 08:56:08;;;;;;;3.80;1.90;;;;;;;-140.05;100.00;61859.38;5047487;28;20222;-65
2021/05/15 08:58:36;;;;;;;11.67;2.73;;;;;;;-140.05;100.00;61859.38;5045460;28;20216;-63
2021/05/15 09:01:03;;;;;;;5.53;2.10;;;;;;;-140.05;100.00;61859.38;5040239;28;20193;-64
2021/05/15 09:03:29;;;;;;;11.20;4.50;;;;;;;-140.05;100.00;61859.38;5045492;28;20193;-63
2021/05/15 09:05:56;;;;;;;106.03;95.33;;;;;;;-140.05;100.00;61859.38;5048640;28;20292;-65
2021/05/15 09:08:24;;;;;;;9.47;3.77;;;;;;;-140.05;100.00;61859.38;5039375;28;20201;-62
2021/05/15 09:10:51;;;;;;;6.20;2.43;;;;;;;-140.05;100.00;61859.38;5038774;28;20206;-65
2021/05/15 09:13:23;;;;;;;11.43;2.50;;;;;;;-140.05;100.00;61859.38;5043022;28;20228;-65
2021/05/15 09:16:04;;;;;;;8.63;3.03;;;;;;;-140.05;100.00;61859.38;5048521;28;20620;-63
2021/05/15 09:18:40;;;;;;;7.77;2.40;;;;;;;-140.05;100.00;61859.38;5045800;28;20200;-65
2021/05/15 09:21:28;;;;;;;11.10;2.17;;;;;;;-140.05;100.00;61859.38;5042056;28;20288;-66
2021/05/15 09:23:56;;;;;;;7.60;1.70;;;;;;;-140.05;100.00;61859.38;5043064;28;20217;-65
2021/05/15 09:26:24;;;;;;;6.13;1.70;;;;;;;-140.05;100.00;61859.38;5036132;28;20204;-61
2021/05/15 09:28:55;;;;;;;14.20;2.20;;;;;;;-140.05;100.00;61859.38;5043234;28;20197;-66
2021/05/15 09:31:21;;;;;;;3.17;1.73;;;;;;;-140.05;100.00;61859.38;5044044;28;20200;-60
2021/05/15 09:33:50;;;;;;;4.23;2.03;;;;;;;-140.05;100.00;61859.38;5042847;28;20288;-60
2021/05/15 09:36:18;;;;;;;11.10;1.90;;;;;;;-140.05;100.00;61859.38;5042491;28;20227;-62
2021/05/15 09:39:08;;;;;;;44.13;36.53;;;;;;;-140.05;100.00;61859.38;5043783;28;20952;-63
2021/05/15 09:41:58;;;;;;;59.03;52.93;;;;;;;-140.05;100.00;61859.38;5040551;28;20200;-65
2021/05/15 09:44:27;;;;;;;7.23;4.13;;;;;;;-140.05;100.00;61859.38;5039992;28;20217;-61
2021/05/15 09:46:55;;;;;;;3.73;2.07;;;;;;;-140.05;100.00;61859.38;5049501;28;20200;-65
2021/05/15 09:49:26;;;;;;;5.87;3.27;;;;;;;-140.05;100.00;61859.38;5043974;28;20181;-64
2021/05/15 09:52:05;;;;;;;4.50;1.90;;;;;;;-140.05;100.00;61859.38;5049229;28;20205;-64
2021/05/15 09:54:34;;;;;;;4.97;1.10;;;;;;;-140.05;100.00;61859.38;5043681;28;20582;-63
2021/05/15 09:57:11;;;;;;;5.97;2.20;;;;;;;-140.05;100.00;61859.38;5046339;28;20189;-61
2021/05/15 09:59:44;;;;;;;4.30;1.80;;;;;;;-140.05;100.00;61859.38;5043804;28;20205;-62
2021/05/15 10:02:16;;;;;;;4.37;1.70;;;;;;;-140.05;100.00;61859.38;5046348;28;20646;-63
2021/05/15 10:04:45;;;;;;;6.80;2.40;;;;;;;-140.05;100.00;61859.38;5047635;28;20216;-62
2021/05/15 10:07:21;;;;;;;6.63;2.00;;;;;;;-140.05;100.00;61859.38;5043696;28;20275;-60
2021/05/15 10:09:48;;;;;;;3.73;1.53;;;;;;;-140.05;100.00;61859.38;5045366;28;20696;-62
2021/05/15 10:12:18;;;;;;;4.43;1.83;;;;;;;-140.05;100.00;61859.38;5046507;28;20262;-61
2021/05/15 10:14:45;;;;;;;4.20;1.87;;;;;;;-140.05;100.00;61859.38;5055212;28;20291;-63
2021/05/15 10:17:12;;;;;;;7.40;2.30;;;;;;;-140.05;100.00;61859.38;5052459;28;20681;-62
2021/05/15 10:19:39;;;;;;;11.40;5.67;;;;;;;-140.05;100.00;61859.38;5052343;28;20216;-64
2021/05/15 10:22:06;;;;;;;19.93;16.87;;;;;;;-140.05;100.00;61859.38;5052234;28;20658;-68
2021/05/15 10:24:35;;;;;;;7.60;2.53;;;;;;;-140.05;100.00;61859.38;5052208;28;20673;-63
2021/05/15 10:27:05;;;;;;;5.17;2.10;;;;;;;-140.05;100.00;61859.38;5051973;28;20200;-64
2021/05/15 10:29:39;;;;;;;5.67;2.40;;;;;;;-140.05;100.00;61859.38;5052051;28;20733;-62
2021/05/15 10:32:23;;;;;;;4.70;2.00;;;;;;;-140.05;100.00;61859.38;5052016;28;20776;-65
2021/05/15 10:34:59;;;;;;;6.00;2.30;;;;;;;-140.05;100.00;61859.38;5051946;28;20250;-64
2021/05/15 10:37:30;;;;;;;5.33;2.20;;;;;;;-140.05;100.00;61859.38;5038605;28;20204;-64
2021/05/15 10:39:57;;;;;;;4.77;1.80;;;;;;;-140.05;100.00;61859.38;5051936;28;20193;-63
2021/05/15 10:42:32;;;;;;;7.93;2.30;;;;;;;-140.05;100.00;61859.38;5051930;28;20265;-63
2021/05/15 10:45:03;;;;;;;6.03;1.70;;;;;;;-140.05;100.00;61859.38;5051636;28;20480;-65
2021/05/15 10:47:43;;;;;;;5.37;1.70;;;;;;;-140.05;100.00;61859.38;5039584;28;20470;-64
2021/05/15 10:50:21;;;;;;;6.17;1.60;;;;;;;-140.05;100.00;61859.38;5043451;28;20454;-62
2021/05/15 10:52:50;;;;;;;7.67;1.70;;;;;;;-140.05;100.00;61859.38;5039660;28;20471;-61
2021/05/15 10:55:32;;;;;;;3.10;1.60;;;;;;;-140.05;100.00;61859.38;5037353;28;20458;-62
2021/05/15 10:58:10;;;;;;;3.97;1.70;;;;;;;-140.05;100.00;61859.38;5038235;28;20984;-62
2021/05/15 11:00:37;;;;;;;3.03;1.80;;;;;;;-140.05;100.00;61859.38;5039225;28;20863;-63
2021/05/15 11:03:05;;;;;;;5.03;1.70;;;;;;;-140.05;100.00;61859.38;5047705;28;20279;-62
2021/05/15 11:05:43;;;;;;;5.43;1.57;;;;;;;-140.05;100.00;61859.38;5044014;28;20509;-62
2021/05/15 11:08:24;;;;;;;4.00;1.53;;;;;;;-140.05;100.00;61859.38;5043730;28;20475;-63